»·PEaware :: SWA1540 KSAN-KPHX

SWA1540 :: KSAN-KPHX

FLIGHT INFORMATION

Flight Status: Arrived
Operator:
Southwest Airlines
More flights by this operator :: More flights under this callsign
Pilot: Colin A. (19898)
Aircraft: BOEING 737-700
(B737)
More flights by this aircraft type
Origin: KSAN San Diego Intl-Lindbergh
United States
Destination: KPHX Phoenix Sky Harbor Intl
United States
More flights between these airports :: More routes between these airports
Route: +ZZOOO2 IPL J18 BZA HOGGZ HYDRR1
File this flight plan on PilotEdge
Remarks: PBN / A1B1C1D1S1S2 DOF / 180726 REG / N714SB EET / KZAB0025 OPR / SWA PER / C RMK / TCAS SIMBRIEF
Altitude:
(Current/Filed)
39,000ft
Speed:
(Current/Filed)
457kts
Departed: 26-Jul-18 08:10 PM
Arrived: 26-Jul-18 09:03 PM
Distance/Time
Traveled:
264nm/0:53
Distance/Time
To Go:
Arrived

Flight Plot

Page will automatically refresh every two minutes.

Flight plan parsing failed; only flown route is shown


Map Options




Map Legend


Flown Route
Filed Route
Departure Airport
Arrival Airport
Navaid (VOR, NDB)
Fix

Horizontal Profiles

Position Reports

Time Latitude Longitude Heading Altitude Ground
Speed
26-Jul-18 19:27 32.732369 -117.195964 306 23ft 0kts
26-Jul-18 19:28 32.732369 -117.195964 306 23ft 0kts
26-Jul-18 19:29 32.732369 -117.195964 306 23ft 0kts
26-Jul-18 19:30 32.732369 -117.195964 306 23ft 0kts
26-Jul-18 19:31 32.732369 -117.195964 306 23ft 0kts
26-Jul-18 19:32 32.732369 -117.195964 306 23ft 0kts
26-Jul-18 19:33 32.732369 -117.195964 306 23ft 0kts
26-Jul-18 19:34 32.732369 -117.195964 306 23ft 0kts
26-Jul-18 19:35 32.732369 -117.195964 306 23ft 0kts
26-Jul-18 19:36 32.732369 -117.195964 306 23ft 0kts
26-Jul-18 19:37 32.732369 -117.195964 306 23ft 0kts
26-Jul-18 19:38 32.732369 -117.195964 306 23ft 0kts
26-Jul-18 19:39 32.732369 -117.195964 306 23ft 0kts
26-Jul-18 19:40 32.732369 -117.195964 306 23ft 0kts
26-Jul-18 19:41 32.732369 -117.195964 306 23ft 0kts
26-Jul-18 19:42 32.732369 -117.195964 306 23ft 0kts
26-Jul-18 19:43 32.732369 -117.195964 306 23ft 0kts
26-Jul-18 19:44 32.732369 -117.195964 306 23ft 0kts
26-Jul-18 19:45 32.732369 -117.195964 306 23ft 0kts
26-Jul-18 19:46 32.732369 -117.195964 306 23ft 0kts
26-Jul-18 19:47 32.732369 -117.195964 306 23ft 0kts
26-Jul-18 19:48 32.732369 -117.195964 306 23ft 0kts
26-Jul-18 19:49 32.732369 -117.195964 306 23ft 0kts
26-Jul-18 19:50 32.732369 -117.195964 306 23ft 0kts
26-Jul-18 19:51 32.732369 -117.195964 306 23ft 0kts
26-Jul-18 19:52 32.732369 -117.195964 306 23ft 0kts
26-Jul-18 19:53 32.732369 -117.195964 306 23ft 0kts
26-Jul-18 19:54 32.732369 -117.195964 306 23ft 0kts
26-Jul-18 19:55 32.732369 -117.195964 306 23ft 0kts
26-Jul-18 19:56 32.732369 -117.195964 306 23ft 0kts
26-Jul-18 19:57 32.732354 -117.195939 306 23ft 1kts
26-Jul-18 19:58 32.732004 -117.195335 292 23ft 2kts
26-Jul-18 19:59 32.731778 -117.195050 14 23ft 0kts
26-Jul-18 20:00 32.731778 -117.195050 14 23ft 0kts
26-Jul-18 20:01 32.731778 -117.195050 14 23ft 0kts
26-Jul-18 20:02 32.731778 -117.195050 14 23ft 0kts
26-Jul-18 20:03 32.731778 -117.195050 14 23ft 0kts
26-Jul-18 20:04 32.731778 -117.195050 14 23ft 0kts
26-Jul-18 20:05 32.731778 -117.195050 14 23ft 0kts
26-Jul-18 20:06 32.733110 -117.192172 103 23ft 18kts
26-Jul-18 20:07 32.731377 -117.184880 105 23ft 23kts
26-Jul-18 20:08 32.729631 -117.177674 105 23ft 10kts
26-Jul-18 20:09 32.729516 -117.176793 85 23ft 0kts
26-Jul-18 20:10 32.729525 -117.176719 79 23ft 5kts
26-Jul-18 20:11 32.730601 -117.177602 284 23ft 53kts
26-Jul-18 20:12 32.742568 -117.227786 286 2478ft 190kts
26-Jul-18 20:13 32.751731 -117.298092 248 5462ft 245kts
26-Jul-18 20:14 32.688844 -117.310826 140 7935ft 291kts
26-Jul-18 20:15 32.634695 -117.239744 115 8020ft 292kts
26-Jul-18 20:16 32.622027 -117.144045 96 8042ft 294kts
26-Jul-18 20:17 32.613767 -117.047559 96 8039ft 294kts
26-Jul-18 20:18 32.605058 -116.951454 97 9099ft 296kts
26-Jul-18 20:19 32.614468 -116.852101 77 11107ft 313kts
26-Jul-18 20:20 32.634584 -116.743025 83 13066ft 377kts
26-Jul-18 20:21 32.646381 -116.613889 86 16283ft 407kts
26-Jul-18 20:22 32.659089 -116.475825 86 19307ft 433kts
26-Jul-18 20:23 32.673299 -116.330003 86 22074ft 455kts
26-Jul-18 20:24 32.687707 -116.177586 86 23032ft 465kts
26-Jul-18 20:25 32.701812 -116.025228 86 23001ft 465kts
26-Jul-18 20:26 32.715985 -115.871829 86 24086ft 473kts
26-Jul-18 20:27 32.730627 -115.713517 86 26202ft 490kts
26-Jul-18 20:28 32.745220 -115.549725 86 28016ft 507kts
26-Jul-18 20:29 32.752630 -115.380249 92 29580ft 519kts
26-Jul-18 20:30 32.756213 -115.206856 92 31019ft 531kts
26-Jul-18 20:31 32.759839 -115.031629 92 32752ft 531kts
26-Jul-18 20:32 32.763606 -114.855148 92 34277ft 533kts
26-Jul-18 20:33 32.766781 -114.679186 92 35693ft 534kts
26-Jul-18 20:34 32.769489 -114.501912 93 36049ft 539kts
26-Jul-18 20:35 32.772088 -114.324106 92 32826ft 539kts
26-Jul-18 20:36 32.774061 -114.146648 92 28830ft 534kts
26-Jul-18 20:37 32.805345 -113.976395 73 25456ft 512kts
26-Jul-18 20:38 32.848465 -113.828705 71 25008ft 438kts
26-Jul-18 20:39 32.887516 -113.698110 71 24915ft 412kts
26-Jul-18 20:40 32.929725 -113.570731 57 24914ft 416kts
26-Jul-18 20:41 32.988973 -113.453388 45 24932ft 414kts
26-Jul-18 20:42 33.066271 -113.351807 46 24929ft 414kts
26-Jul-18 20:43 33.144269 -113.246557 47 22244ft 431kts
26-Jul-18 20:44 33.223651 -113.138660 48 19313ft 431kts
26-Jul-18 20:45 33.275184 -113.022318 86 18573ft 387kts
26-Jul-18 20:46 33.278796 -112.896618 91 17541ft 371kts
26-Jul-18 20:47 33.283660 -112.775722 86 16313ft 353kts
26-Jul-18 20:48 33.295459 -112.661932 85 15066ft 338kts
26-Jul-18 20:49 33.305818 -112.552909 85 13875ft 330kts
26-Jul-18 20:50 33.315692 -112.445006 85 12695ft 321kts
26-Jul-18 20:51 33.325291 -112.340109 84 12137ft 315kts
26-Jul-18 20:52 33.334017 -112.244898 85 12087ft 258kts
26-Jul-18 20:53 33.341807 -112.158137 85 11290ft 297kts
26-Jul-18 20:54 33.348147 -112.056031 92 9807ft 305kts
26-Jul-18 20:55 33.347078 -111.958709 91 8800ft 285kts
26-Jul-18 20:56 33.347698 -111.864653 91 7799ft 280kts
26-Jul-18 20:57 33.348400 -111.771919 91 6796ft 276kts
26-Jul-18 20:58 33.362357 -111.685653 38 5767ft 277kts
26-Jul-18 20:59 33.431259 -111.697968 300 4761ft 267kts
26-Jul-18 21:00 33.430443 -111.783548 262 4138ft 258kts
26-Jul-18 21:01 33.428761 -111.867257 268 3322ft 241kts
26-Jul-18 21:02 33.428806 -111.937195 269 2184ft 178kts
26-Jul-18 21:03 33.428847 -111.988187 268 1364ft 138kts
26-Jul-18 21:04 33.429561 -112.016655 345 1143ft 5kts
26-Jul-18 21:05 33.429636 -112.016676 347 1143ft 0kts
26-Jul-18 21:06 33.430109 -112.016288 48 1143ft 16kts
26-Jul-18 21:07 33.432093 -112.014740 90 1143ft 3kts
26-Jul-18 21:08 33.432114 -112.009099 90 1143ft 29kts
26-Jul-18 21:09 33.435630 -112.004701 0 1143ft 32kts
26-Jul-18 21:10 33.438889 -112.007086 272 1143ft 9kts
26-Jul-18 21:11 33.438079 -112.009797 128 1143ft 13kts
26-Jul-18 21:12 33.437910 -112.009439 116 1143ft 0kts

Navigation Log

Ident Type
Flight plan parsing failed, navigation log unavailable